sensor_id;sensor_type;location;lat;lon;timestamp;P1;durP1;ratioP1;P2;durP2;ratioP2
44430;SDS011;30135;47.866;-4.222;2022-07-05T00:01:41;1.73;;;0.20;;
44430;SDS011;30135;47.866;-4.222;2022-07-05T00:04:09;2.40;;;0.38;;
44430;SDS011;30135;47.866;-4.222;2022-07-05T00:06:35;2.28;;;0.30;;
44430;SDS011;30135;47.866;-4.222;2022-07-05T00:09:23;4.13;;;0.20;;
44430;SDS011;30135;47.866;-4.222;2022-07-05T00:11:50;3.13;;;0.47;;
44430;SDS011;30135;47.866;-4.222;2022-07-05T00:14:16;1.55;;;0.10;;
44430;SDS011;30135;47.866;-4.222;2022-07-05T00:16:45;3.85;;;0.30;;
44430;SDS011;30135;47.866;-4.222;2022-07-05T00:19:12;1.27;;;0.20;;
44430;SDS011;30135;47.866;-4.222;2022-07-05T00:21:39;1.05;;;0.30;;
44430;SDS011;30135;47.866;-4.222;2022-07-05T00:24:06;1.05;;;0.30;;
44430;SDS011;30135;47.866;-4.222;2022-07-05T00:26:32;0.77;;;0.25;;
44430;SDS011;30135;47.866;-4.222;2022-07-05T00:28:58;1.05;;;0.30;;
44430;SDS011;30135;47.866;-4.222;2022-07-05T00:31:28;4.97;;;0.30;;
44430;SDS011;30135;47.866;-4.222;2022-07-05T00:33:54;0.95;;;0.40;;
44430;SDS011;30135;47.866;-4.222;2022-07-05T00:36:21;1.35;;;0.22;;
44430;SDS011;30135;47.866;-4.222;2022-07-05T00:38:47;1.45;;;0.70;;
44430;SDS011;30135;47.866;-4.222;2022-07-05T00:41:14;0.90;;;0.40;;
44430;SDS011;30135;47.866;-4.222;2022-07-05T00:44:00;1.45;;;0.32;;
44430;SDS011;30135;47.866;-4.222;2022-07-05T00:46:30;0.30;;;0.20;;
44430;SDS011;30135;47.866;-4.222;2022-07-05T00:48:57;3.85;;;0.73;;
44430;SDS011;30135;47.866;-4.222;2022-07-05T00:51:24;2.10;;;0.40;;
44430;SDS011;30135;47.866;-4.222;2022-07-05T00:53:56;2.15;;;0.50;;
44430;SDS011;30135;47.866;-4.222;2022-07-05T00:56:24;2.97;;;0.60;;
44430;SDS011;30135;47.866;-4.222;2022-07-05T00:58:51;1.13;;;0.63;;
44430;SDS011;30135;47.866;-4.222;2022-07-05T01:01:20;4.07;;;0.40;;
44430;SDS011;30135;47.866;-4.222;2022-07-05T01:03:47;4.93;;;0.60;;
44430;SDS011;30135;47.866;-4.222;2022-07-05T01:06:14;1.55;;;0.60;;
44430;SDS011;30135;47.866;-4.222;2022-07-05T01:08:43;2.42;;;0.35;;
44430;SDS011;30135;47.866;-4.222;2022-07-05T01:11:12;0.43;;;0.20;;
44430;SDS011;30135;47.866;-4.222;2022-07-05T01:13:39;1.30;;;0.40;;
44430;SDS011;30135;47.866;-4.222;2022-07-05T01:16:06;0.85;;;0.60;;
44430;SDS011;30135;47.866;-4.222;2022-07-05T01:18:34;2.38;;;0.70;;
44430;SDS011;30135;47.866;-4.222;2022-07-05T01:21:03;9.18;;;2.70;;
44430;SDS011;30135;47.866;-4.222;2022-07-05T01:23:31;19.95;;;6.70;;
44430;SDS011;30135;47.866;-4.222;2022-07-05T01:25:59;14.35;;;6.03;;
44430;SDS011;30135;47.866;-4.222;2022-07-05T01:30:55;31.77;;;13.25;;
44430;SDS011;30135;47.866;-4.222;2022-07-05T01:33:29;22.40;;;9.88;;
44430;SDS011;30135;47.866;-4.222;2022-07-05T01:35:57;15.45;;;5.90;;
44430;SDS011;30135;47.866;-4.222;2022-07-05T01:38:25;8.45;;;3.83;;
44430;SDS011;30135;47.866;-4.222;2022-07-05T01:40:52;12.27;;;6.05;;
44430;SDS011;30135;47.866;-4.222;2022-07-05T01:43:19;6.97;;;3.08;;
44430;SDS011;30135;47.866;-4.222;2022-07-05T01:45:47;6.00;;;1.45;;
44430;SDS011;30135;47.866;-4.222;2022-07-05T01:48:16;1.27;;;0.70;;
44430;SDS011;30135;47.866;-4.222;2022-07-05T01:50:47;1.75;;;0.70;;
44430;SDS011;30135;47.866;-4.222;2022-07-05T01:53:29;1.73;;;0.82;;
44430;SDS011;30135;47.866;-4.222;2022-07-05T01:55:58;2.45;;;1.45;;
44430;SDS011;30135;47.866;-4.222;2022-07-05T01:58:29;1.88;;;1.00;;
44430;SDS011;30135;47.866;-4.222;2022-07-05T02:00:57;5.43;;;1.15;;
44430;SDS011;30135;47.866;-4.222;2022-07-05T02:03:24;0.95;;;0.50;;
44430;SDS011;30135;47.866;-4.222;2022-07-05T02:05:53;1.42;;;0.68;;
44430;SDS011;30135;47.866;-4.222;2022-07-05T02:08:25;2.30;;;0.60;;
44430;SDS011;30135;47.866;-4.222;2022-07-05T02:10:55;1.73;;;0.68;;
44430;SDS011;30135;47.866;-4.222;2022-07-05T02:13:23;3.15;;;1.70;;
44430;SDS011;30135;47.866;-4.222;2022-07-05T02:15:50;6.47;;;1.25;;
44430;SDS011;30135;47.866;-4.222;2022-07-05T02:18:16;2.72;;;0.88;;
44430;SDS011;30135;47.866;-4.222;2022-07-05T02:20:44;1.63;;;0.80;;
44430;SDS011;30135;47.866;-4.222;2022-07-05T02:23:10;2.65;;;0.50;;
44430;SDS011;30135;47.866;-4.222;2022-07-05T02:25:37;1.55;;;0.63;;
44430;SDS011;30135;47.866;-4.222;2022-07-05T02:28:04;2.30;;;0.30;;
44430;SDS011;30135;47.866;-4.222;2022-07-05T02:30:32;0.93;;;0.68;;
44430;SDS011;30135;47.866;-4.222;2022-07-05T02:32:59;0.25;;;0.25;;
44430;SDS011;30135;47.866;-4.222;2022-07-05T02:35:27;0.30;;;0.28;;
44430;SDS011;30135;47.866;-4.222;2022-07-05T02:37:54;1.88;;;0.50;;
44430;SDS011;30135;47.866;-4.222;2022-07-05T02:40:21;0.63;;;0.40;;
44430;SDS011;30135;47.866;-4.222;2022-07-05T02:42:48;1.02;;;0.40;;
44430;SDS011;30135;47.866;-4.222;2022-07-05T02:45:14;2.33;;;0.63;;
44430;SDS011;30135;47.866;-4.222;2022-07-05T02:47:41;1.40;;;0.52;;
44430;SDS011;30135;47.866;-4.222;2022-07-05T02:50:08;1.55;;;0.40;;
44430;SDS011;30135;47.866;-4.222;2022-07-05T02:52:37;1.08;;;0.47;;
44430;SDS011;30135;47.866;-4.222;2022-07-05T02:55:06;1.40;;;0.50;;
44430;SDS011;30135;47.866;-4.222;2022-07-05T02:57:36;0.77;;;0.33;;
44430;SDS011;30135;47.866;-4.222;2022-07-05T03:00:04;0.82;;;0.30;;
44430;SDS011;30135;47.866;-4.222;2022-07-05T03:02:34;0.20;;;0.17;;
44430;SDS011;30135;47.866;-4.222;2022-07-05T03:05:01;0.80;;;0.30;;
44430;SDS011;30135;47.866;-4.222;2022-07-05T03:09:58;0.75;;;0.47;;
44430;SDS011;30135;47.866;-4.222;2022-07-05T03:12:24;2.47;;;0.32;;
44430;SDS011;30135;47.866;-4.222;2022-07-05T03:14:52;0.70;;;0.30;;
44430;SDS011;30135;47.866;-4.222;2022-07-05T03:17:18;0.30;;;0.15;;
44430;SDS011;30135;47.866;-4.222;2022-07-05T03:19:45;3.80;;;0.60;;
44430;SDS011;30135;47.866;-4.222;2022-07-05T03:22:12;0.98;;;0.55;;
44430;SDS011;30135;47.866;-4.222;2022-07-05T03:24:39;2.85;;;0.95;;
44430;SDS011;30135;47.866;-4.222;2022-07-05T03:27:06;1.50;;;0.45;;
44430;SDS011;30135;47.866;-4.222;2022-07-05T03:29:32;0.55;;;0.17;;
44430;SDS011;30135;47.866;-4.222;2022-07-05T03:31:59;0.65;;;0.40;;
44430;SDS011;30135;47.866;-4.222;2022-07-05T03:34:26;3.05;;;0.40;;
44430;SDS011;30135;47.866;-4.222;2022-07-05T03:36:53;4.95;;;0.40;;
44430;SDS011;30135;47.866;-4.222;2022-07-05T03:39:20;1.27;;;0.35;;
44430;SDS011;30135;47.866;-4.222;2022-07-05T03:41:47;1.60;;;0.47;;
44430;SDS011;30135;47.866;-4.222;2022-07-05T03:44:14;1.70;;;0.95;;
44430;SDS011;30135;47.866;-4.222;2022-07-05T03:46:41;32.47;;;15.50;;
44430;SDS011;30135;47.866;-4.222;2022-07-05T03:49:08;14.82;;;7.05;;
44430;SDS011;30135;47.866;-4.222;2022-07-05T03:51:35;5.05;;;2.65;;
44430;SDS011;30135;47.866;-4.222;2022-07-05T03:54:02;2.75;;;1.63;;
44430;SDS011;30135;47.866;-4.222;2022-07-05T03:56:29;1.00;;;0.70;;
44430;SDS011;30135;47.866;-4.222;2022-07-05T03:58:56;0.95;;;0.40;;
44430;SDS011;30135;47.866;-4.222;2022-07-05T04:01:23;3.35;;;0.43;;
44430;SDS011;30135;47.866;-4.222;2022-07-05T04:03:50;0.85;;;0.52;;
44430;SDS011;30135;47.866;-4.222;2022-07-05T04:06:17;0.88;;;0.25;;
44430;SDS011;30135;47.866;-4.222;2022-07-05T04:08:44;0.35;;;0.30;;
44430;SDS011;30135;47.866;-4.222;2022-07-05T04:11:10;1.27;;;0.38;;
44430;SDS011;30135;47.866;-4.222;2022-07-05T04:13:39;1.08;;;0.40;;
44430;SDS011;30135;47.866;-4.222;2022-07-05T04:16:06;0.32;;;0.20;;
44430;SDS011;30135;47.866;-4.222;2022-07-05T04:18:34;0.90;;;0.40;;
44430;SDS011;30135;47.866;-4.222;2022-07-05T04:21:01;1.50;;;0.50;;
44430;SDS011;30135;47.866;-4.222;2022-07-05T04:23:28;3.30;;;1.33;;
44430;SDS011;30135;47.866;-4.222;2022-07-05T04:25:55;1.42;;;0.85;;
44430;SDS011;30135;47.866;-4.222;2022-07-05T04:28:21;5.32;;;1.30;;
44430;SDS011;30135;47.866;-4.222;2022-07-05T04:30:48;4.60;;;0.98;;
44430;SDS011;30135;47.866;-4.222;2022-07-05T04:33:14;8.07;;;1.25;;
44430;SDS011;30135;47.866;-4.222;2022-07-05T04:35:41;1.23;;;0.55;;
44430;SDS011;30135;47.866;-4.222;2022-07-05T04:38:10;1.30;;;0.73;;
44430;SDS011;30135;47.866;-4.222;2022-07-05T04:40:37;1.88;;;1.23;;
44430;SDS011;30135;47.866;-4.222;2022-07-05T04:43:06;2.95;;;0.55;;
44430;SDS011;30135;47.866;-4.222;2022-07-05T04:45:35;1.65;;;0.38;;
44430;SDS011;30135;47.866;-4.222;2022-07-05T04:48:05;3.17;;;0.40;;
44430;SDS011;30135;47.866;-4.222;2022-07-05T04:50:33;1.00;;;0.50;;
44430;SDS011;30135;47.866;-4.222;2022-07-05T04:53:00;1.10;;;0.65;;
44430;SDS011;30135;47.866;-4.222;2022-07-05T04:55:27;1.35;;;0.73;;
44430;SDS011;30135;47.866;-4.222;2022-07-05T04:57:53;1.15;;;0.55;;
44430;SDS011;30135;47.866;-4.222;2022-07-05T05:00:20;2.38;;;1.35;;
44430;SDS011;30135;47.866;-4.222;2022-07-05T05:02:49;2.63;;;0.50;;
44430;SDS011;30135;47.866;-4.222;2022-07-05T05:05:15;1.05;;;0.50;;
44430;SDS011;30135;47.866;-4.222;2022-07-05T05:07:43;6.93;;;1.67;;
44430;SDS011;30135;47.866;-4.222;2022-07-05T05:10:11;1.25;;;0.50;;
44430;SDS011;30135;47.866;-4.222;2022-07-05T05:12:38;4.18;;;0.65;;
44430;SDS011;30135;47.866;-4.222;2022-07-05T05:15:05;1.17;;;0.55;;
44430;SDS011;30135;47.866;-4.222;2022-07-05T05:17:36;0.98;;;0.60;;
44430;SDS011;30135;47.866;-4.222;2022-07-05T05:20:14;1.15;;;0.20;;
44430;SDS011;30135;47.866;-4.222;2022-07-05T05:22:43;4.13;;;0.50;;
44430;SDS011;30135;47.866;-4.222;2022-07-05T05:25:10;2.70;;;0.90;;
44430;SDS011;30135;47.866;-4.222;2022-07-05T05:27:44;2.45;;;1.10;;
44430;SDS011;30135;47.866;-4.222;2022-07-05T05:30:12;4.10;;;1.83;;
44430;SDS011;30135;47.866;-4.222;2022-07-05T05:32:48;4.25;;;0.50;;
44430;SDS011;30135;47.866;-4.222;2022-07-05T05:35:15;17.88;;;1.02;;
44430;SDS011;30135;47.866;-4.222;2022-07-05T05:37:46;1.33;;;0.38;;
44430;SDS011;30135;47.866;-4.222;2022-07-05T05:40:12;2.15;;;0.50;;
44430;SDS011;30135;47.866;-4.222;2022-07-05T05:42:40;1.67;;;0.43;;
44430;SDS011;30135;47.866;-4.222;2022-07-05T05:45:07;1.42;;;0.40;;
44430;SDS011;30135;47.866;-4.222;2022-07-05T05:47:46;0.80;;;0.30;;
44430;SDS011;30135;47.866;-4.222;2022-07-05T05:50:25;2.58;;;0.50;;
44430;SDS011;30135;47.866;-4.222;2022-07-05T05:53:04;2.03;;;1.10;;
44430;SDS011;30135;47.866;-4.222;2022-07-05T05:55:31;1.85;;;0.40;;
44430;SDS011;30135;47.866;-4.222;2022-07-05T05:58:20;1.85;;;0.57;;
44430;SDS011;30135;47.866;-4.222;2022-07-05T06:00:48;1.08;;;0.50;;
44430;SDS011;30135;47.866;-4.222;2022-07-05T06:03:20;0.50;;;0.30;;
44430;SDS011;30135;47.866;-4.222;2022-07-05T06:05:51;4.18;;;0.30;;
44430;SDS011;30135;47.866;-4.222;2022-07-05T06:08:19;2.53;;;0.40;;
44430;SDS011;30135;47.866;-4.222;2022-07-05T06:10:47;0.75;;;0.43;;
44430;SDS011;30135;47.866;-4.222;2022-07-05T06:13:14;2.67;;;0.80;;
44430;SDS011;30135;47.866;-4.222;2022-07-05T06:15:42;3.70;;;0.85;;
44430;SDS011;30135;47.866;-4.222;2022-07-05T06:18:09;3.90;;;0.60;;
44430;SDS011;30135;47.866;-4.222;2022-07-05T06:20:37;2.03;;;0.50;;
44430;SDS011;30135;47.866;-4.222;2022-07-05T06:23:05;0.50;;;0.38;;
44430;SDS011;30135;47.866;-4.222;2022-07-05T06:25:32;3.38;;;0.80;;
44430;SDS011;30135;47.866;-4.222;2022-07-05T06:28:04;2.78;;;0.50;;
44430;SDS011;30135;47.866;-4.222;2022-07-05T06:30:34;1.67;;;0.55;;
44430;SDS011;30135;47.866;-4.222;2022-07-05T06:35:29;9.50;;;0.43;;
44430;SDS011;30135;47.866;-4.222;2022-07-05T06:37:58;0.73;;;0.50;;
44430;SDS011;30135;47.866;-4.222;2022-07-05T06:40:35;6.85;;;0.40;;
44430;SDS011;30135;47.866;-4.222;2022-07-05T06:43:10;4.28;;;0.30;;
44430;SDS011;30135;47.866;-4.222;2022-07-05T06:45:39;2.10;;;0.35;;
44430;SDS011;30135;47.866;-4.222;2022-07-05T06:48:07;0.55;;;0.20;;
44430;SDS011;30135;47.866;-4.222;2022-07-05T06:50:37;4.65;;;0.30;;
44430;SDS011;30135;47.866;-4.222;2022-07-05T06:53:07;2.03;;;0.32;;
44430;SDS011;30135;47.866;-4.222;2022-07-05T06:55:34;0.98;;;0.20;;
44430;SDS011;30135;47.866;-4.222;2022-07-05T07:00:34;3.45;;;0.30;;
44430;SDS011;30135;47.866;-4.222;2022-07-05T07:03:02;2.10;;;0.20;;
44430;SDS011;30135;47.866;-4.222;2022-07-05T07:05:29;3.17;;;0.63;;
44430;SDS011;30135;47.866;-4.222;2022-07-05T07:07:55;0.55;;;0.30;;
44430;SDS011;30135;47.866;-4.222;2022-07-05T07:10:44;0.95;;;0.13;;
44430;SDS011;30135;47.866;-4.222;2022-07-05T07:13:15;2.95;;;1.67;;
44430;SDS011;30135;47.866;-4.222;2022-07-05T07:15:45;1.38;;;0.10;;
44430;SDS011;30135;47.866;-4.222;2022-07-05T07:18:13;5.15;;;0.20;;
44430;SDS011;30135;47.866;-4.222;2022-07-05T07:20:41;3.75;;;0.30;;
44430;SDS011;30135;47.866;-4.222;2022-07-05T07:23:08;1.48;;;0.40;;
44430;SDS011;30135;47.866;-4.222;2022-07-05T07:25:34;0.00;;;0.00;;
44430;SDS011;30135;47.866;-4.222;2022-07-05T07:28:01;5.07;;;0.20;;
44430;SDS011;30135;47.866;-4.222;2022-07-05T07:30:28;0.43;;;0.30;;
44430;SDS011;30135;47.866;-4.222;2022-07-05T07:32:59;0.28;;;0.10;;
44430;SDS011;30135;47.866;-4.222;2022-07-05T07:35:29;0.28;;;0.20;;
44430;SDS011;30135;47.866;-4.222;2022-07-05T07:37:55;0.73;;;0.30;;
44430;SDS011;30135;47.866;-4.222;2022-07-05T07:40:22;0.50;;;0.20;;
44430;SDS011;30135;47.866;-4.222;2022-07-05T07:42:51;0.52;;;0.17;;
44430;SDS011;30135;47.866;-4.222;2022-07-05T07:45:18;0.10;;;0.10;;
44430;SDS011;30135;47.866;-4.222;2022-07-05T07:47:45;0.50;;;0.10;;
44430;SDS011;30135;47.866;-4.222;2022-07-05T07:50:12;0.38;;;0.10;;
44430;SDS011;30135;47.866;-4.222;2022-07-05T07:52:39;3.28;;;0.10;;
44430;SDS011;30135;47.866;-4.222;2022-07-05T07:55:06;2.00;;;0.20;;
44430;SDS011;30135;47.866;-4.222;2022-07-05T07:57:33;0.52;;;0.13;;
44430;SDS011;30135;47.866;-4.222;2022-07-05T08:00:00;0.88;;;0.30;;
44430;SDS011;30135;47.866;-4.222;2022-07-05T08:02:30;1.95;;;0.50;;
44430;SDS011;30135;47.866;-4.222;2022-07-05T08:04:57;1.08;;;0.30;;
44430;SDS011;30135;47.866;-4.222;2022-07-05T08:07:24;0.15;;;0.10;;
44430;SDS011;30135;47.866;-4.222;2022-07-05T08:09:51;1.35;;;0.20;;
44430;SDS011;30135;47.866;-4.222;2022-07-05T08:12:18;0.75;;;0.20;;
44430;SDS011;30135;47.866;-4.222;2022-07-05T08:14:45;0.63;;;0.10;;
44430;SDS011;30135;47.866;-4.222;2022-07-05T08:17:12;0.60;;;0.30;;
44430;SDS011;30135;47.866;-4.222;2022-07-05T08:19:39;0.22;;;0.10;;
44430;SDS011;30135;47.866;-4.222;2022-07-05T08:22:24;1.95;;;0.25;;
44430;SDS011;30135;47.866;-4.222;2022-07-05T08:24:51;0.63;;;0.40;;
44430;SDS011;30135;47.866;-4.222;2022-07-05T08:27:17;1.80;;;0.80;;
44430;SDS011;30135;47.866;-4.222;2022-07-05T08:29:44;1.10;;;0.20;;
44430;SDS011;30135;47.866;-4.222;2022-07-05T08:32:10;0.10;;;0.10;;
44430;SDS011;30135;47.866;-4.222;2022-07-05T08:34:37;0.73;;;0.20;;
44430;SDS011;30135;47.866;-4.222;2022-07-05T08:37:04;0.15;;;0.15;;
44430;SDS011;30135;47.866;-4.222;2022-07-05T08:39:31;2.15;;;0.22;;
44430;SDS011;30135;47.866;-4.222;2022-07-05T08:41:59;0.70;;;0.20;;
44430;SDS011;30135;47.866;-4.222;2022-07-05T08:46:58;1.98;;;0.17;;
44430;SDS011;30135;47.866;-4.222;2022-07-05T08:49:28;1.75;;;0.20;;
44430;SDS011;30135;47.866;-4.222;2022-07-05T08:51:58;0.63;;;0.10;;
44430;SDS011;30135;47.866;-4.222;2022-07-05T08:54:29;1.13;;;0.10;;
44430;SDS011;30135;47.866;-4.222;2022-07-05T08:56:56;0.47;;;0.20;;
44430;SDS011;30135;47.866;-4.222;2022-07-05T08:59:22;4.25;;;0.25;;
44430;SDS011;30135;47.866;-4.222;2022-07-05T09:01:49;0.20;;;0.08;;
44430;SDS011;30135;47.866;-4.222;2022-07-05T09:04:16;0.20;;;0.20;;
44430;SDS011;30135;47.866;-4.222;2022-07-05T09:06:44;0.10;;;0.10;;
44430;SDS011;30135;47.866;-4.222;2022-07-05T09:09:13;0.68;;;0.10;;
44430;SDS011;30135;47.866;-4.222;2022-07-05T09:11:43;2.30;;;0.10;;
44430;SDS011;30135;47.866;-4.222;2022-07-05T09:17:05;1.35;;;0.17;;
44430;SDS011;30135;47.866;-4.222;2022-07-05T09:19:31;0.73;;;0.10;;
44430;SDS011;30135;47.866;-4.222;2022-07-05T09:22:03;0.65;;;0.10;;
44430;SDS011;30135;47.866;-4.222;2022-07-05T09:24:31;0.35;;;0.20;;
44430;SDS011;30135;47.866;-4.222;2022-07-05T09:27:03;3.20;;;0.20;;
44430;SDS011;30135;47.866;-4.222;2022-07-05T09:29:30;0.20;;;0.10;;
44430;SDS011;30135;47.866;-4.222;2022-07-05T09:31:56;0.03;;;0.00;;
44430;SDS011;30135;47.866;-4.222;2022-07-05T09:34:22;1.45;;;0.20;;
44430;SDS011;30135;47.866;-4.222;2022-07-05T09:36:55;1.75;;;0.10;;
44430;SDS011;30135;47.866;-4.222;2022-07-05T09:47:29;0.10;;;0.10;;
44430;SDS011;30135;47.866;-4.222;2022-07-05T09:49:59;0.22;;;0.13;;
44430;SDS011;30135;47.866;-4.222;2022-07-05T09:57:39;0.10;;;0.00;;
44430;SDS011;30135;47.866;-4.222;2022-07-05T10:02:40;1.42;;;0.20;;
44430;SDS011;30135;47.866;-4.222;2022-07-05T10:07:50;0.10;;;0.00;;
44430;SDS011;30135;47.866;-4.222;2022-07-05T10:10:27;0.10;;;0.10;;
44430;SDS011;30135;47.866;-4.222;2022-07-05T10:12:56;1.85;;;0.15;;
44430;SDS011;30135;47.866;-4.222;2022-07-05T10:15:30;0.43;;;0.10;;
44430;SDS011;30135;47.866;-4.222;2022-07-05T10:20:43;0.10;;;0.10;;
44430;SDS011;30135;47.866;-4.222;2022-07-05T10:23:11;0.50;;;0.25;;
44430;SDS011;30135;47.866;-4.222;2022-07-05T10:25:41;2.55;;;0.10;;
44430;SDS011;30135;47.866;-4.222;2022-07-05T10:28:09;4.75;;;0.10;;
44430;SDS011;30135;47.866;-4.222;2022-07-05T10:30:37;5.18;;;0.57;;
44430;SDS011;30135;47.866;-4.222;2022-07-05T10:33:04;3.20;;;0.15;;
44430;SDS011;30135;47.866;-4.222;2022-07-05T10:35:32;7.47;;;0.20;;
44430;SDS011;30135;47.866;-4.222;2022-07-05T10:37:59;0.15;;;0.10;;
44430;SDS011;30135;47.866;-4.222;2022-07-05T10:40:28;1.65;;;0.20;;
44430;SDS011;30135;47.866;-4.222;2022-07-05T10:42:58;0.95;;;0.20;;
44430;SDS011;30135;47.866;-4.222;2022-07-05T10:45:30;3.30;;;0.40;;
44430;SDS011;30135;47.866;-4.222;2022-07-05T10:50:42;0.73;;;0.20;;
44430;SDS011;30135;47.866;-4.222;2022-07-05T10:58:29;1.02;;;0.55;;
44430;SDS011;30135;47.866;-4.222;2022-07-05T11:06:21;4.40;;;0.30;;
44430;SDS011;30135;47.866;-4.222;2022-07-05T11:11:25;1.77;;;0.65;;
44430;SDS011;30135;47.866;-4.222;2022-07-05T11:13:53;1.35;;;0.35;;
44430;SDS011;30135;47.866;-4.222;2022-07-05T11:16:30;0.75;;;0.50;;
44430;SDS011;30135;47.866;-4.222;2022-07-05T11:21:31;1.02;;;0.30;;
44430;SDS011;30135;47.866;-4.222;2022-07-05T11:26:49;1.70;;;0.40;;
44430;SDS011;30135;47.866;-4.222;2022-07-05T11:32:17;1.65;;;0.88;;
44430;SDS011;30135;47.866;-4.222;2022-07-05T11:34:55;2.65;;;0.43;;
44430;SDS011;30135;47.866;-4.222;2022-07-05T11:37:56;7.22;;;0.70;;
44430;SDS011;30135;47.866;-4.222;2022-07-05T11:42:54;4.35;;;0.68;;
44430;SDS011;30135;47.866;-4.222;2022-07-05T11:45:21;6.07;;;0.63;;
44430;SDS011;30135;47.866;-4.222;2022-07-05T11:47:47;2.80;;;0.60;;
44430;SDS011;30135;47.866;-4.222;2022-07-05T11:50:14;1.80;;;0.82;;
44430;SDS011;30135;47.866;-4.222;2022-07-05T11:52:40;0.45;;;0.30;;
44430;SDS011;30135;47.866;-4.222;2022-07-05T11:55:08;3.20;;;0.40;;
44430;SDS011;30135;47.866;-4.222;2022-07-05T11:57:35;1.08;;;0.40;;
44430;SDS011;30135;47.866;-4.222;2022-07-05T12:00:03;1.35;;;0.60;;
44430;SDS011;30135;47.866;-4.222;2022-07-05T12:02:30;2.13;;;0.80;;
44430;SDS011;30135;47.866;-4.222;2022-07-05T12:04:56;1.75;;;1.10;;
44430;SDS011;30135;47.866;-4.222;2022-07-05T12:07:33;1.42;;;0.82;;
44430;SDS011;30135;47.866;-4.222;2022-07-05T12:10:01;1.67;;;0.73;;
44430;SDS011;30135;47.866;-4.222;2022-07-05T12:12:46;0.30;;;0.20;;
44430;SDS011;30135;47.866;-4.222;2022-07-05T12:15:16;1.73;;;1.02;;
44430;SDS011;30135;47.866;-4.222;2022-07-05T12:17:49;2.30;;;0.50;;
44430;SDS011;30135;47.866;-4.222;2022-07-05T12:20:20;1.17;;;0.20;;
44430;SDS011;30135;47.866;-4.222;2022-07-05T12:22:51;1.17;;;0.30;;
44430;SDS011;30135;47.866;-4.222;2022-07-05T12:25:19;0.10;;;0.10;;
44430;SDS011;30135;47.866;-4.222;2022-07-05T12:27:48;0.95;;;0.22;;
44430;SDS011;30135;47.866;-4.222;2022-07-05T12:30:17;2.92;;;0.38;;
44430;SDS011;30135;47.866;-4.222;2022-07-05T12:38:14;3.13;;;0.38;;
44430;SDS011;30135;47.866;-4.222;2022-07-05T12:40:46;2.38;;;0.20;;
44430;SDS011;30135;47.866;-4.222;2022-07-05T12:46:04;0.68;;;0.20;;
44430;SDS011;30135;47.866;-4.222;2022-07-05T12:48:34;0.28;;;0.10;;
44430;SDS011;30135;47.866;-4.222;2022-07-05T12:51:03;1.15;;;0.20;;
44430;SDS011;30135;47.866;-4.222;2022-07-05T12:53:31;0.60;;;0.20;;
44430;SDS011;30135;47.866;-4.222;2022-07-05T12:56:16;1.95;;;0.20;;
44430;SDS011;30135;47.866;-4.222;2022-07-05T12:59:07;1.17;;;0.30;;
44430;SDS011;30135;47.866;-4.222;2022-07-05T13:01:39;4.07;;;0.30;;
44430;SDS011;30135;47.866;-4.222;2022-07-05T13:04:14;0.60;;;0.10;;
44430;SDS011;30135;47.866;-4.222;2022-07-05T13:14:54;0.13;;;0.10;;
44430;SDS011;30135;47.866;-4.222;2022-07-05T13:17:21;1.65;;;0.77;;
44430;SDS011;30135;47.866;-4.222;2022-07-05T13:19:51;0.63;;;0.20;;
44430;SDS011;30135;47.866;-4.222;2022-07-05T13:22:18;3.88;;;0.22;;
44430;SDS011;30135;47.866;-4.222;2022-07-05T13:24:44;2.75;;;0.10;;
44430;SDS011;30135;47.866;-4.222;2022-07-05T13:27:11;7.60;;;0.35;;
44430;SDS011;30135;47.866;-4.222;2022-07-05T13:29:38;3.53;;;0.15;;
44430;SDS011;30135;47.866;-4.222;2022-07-05T13:32:05;1.00;;;0.50;;
44430;SDS011;30135;47.866;-4.222;2022-07-05T13:34:32;0.10;;;0.10;;
44430;SDS011;30135;47.866;-4.222;2022-07-05T13:36:59;0.30;;;0.20;;
44430;SDS011;30135;47.866;-4.222;2022-07-05T13:39:27;0.55;;;0.22;;
44430;SDS011;30135;47.866;-4.222;2022-07-05T13:41:54;5.68;;;0.17;;
44430;SDS011;30135;47.866;-4.222;2022-07-05T13:44:21;0.43;;;0.20;;
44430;SDS011;30135;47.866;-4.222;2022-07-05T13:46:48;0.50;;;0.20;;
44430;SDS011;30135;47.866;-4.222;2022-07-05T13:49:14;4.78;;;0.63;;
44430;SDS011;30135;47.866;-4.222;2022-07-05T13:51:40;1.88;;;0.20;;
44430;SDS011;30135;47.866;-4.222;2022-07-05T13:54:06;1.63;;;0.20;;
44430;SDS011;30135;47.866;-4.222;2022-07-05T13:56:33;0.32;;;0.17;;
44430;SDS011;30135;47.866;-4.222;2022-07-05T13:59:00;0.85;;;0.20;;
44430;SDS011;30135;47.866;-4.222;2022-07-05T14:01:27;2.20;;;0.03;;
44430;SDS011;30135;47.866;-4.222;2022-07-05T14:03:54;2.20;;;0.30;;
44430;SDS011;30135;47.866;-4.222;2022-07-05T14:06:23;4.40;;;0.40;;
44430;SDS011;30135;47.866;-4.222;2022-07-05T14:08:56;1.63;;;0.15;;
44430;SDS011;30135;47.866;-4.222;2022-07-05T14:11:23;2.50;;;0.20;;
44430;SDS011;30135;47.866;-4.222;2022-07-05T14:13:55;0.55;;;0.50;;
44430;SDS011;30135;47.866;-4.222;2022-07-05T14:16:22;6.03;;;0.77;;
44430;SDS011;30135;47.866;-4.222;2022-07-05T14:18:49;0.55;;;0.17;;
44430;SDS011;30135;47.866;-4.222;2022-07-05T14:21:16;1.55;;;0.10;;
44430;SDS011;30135;47.866;-4.222;2022-07-05T14:23:43;0.47;;;0.30;;
44430;SDS011;30135;47.866;-4.222;2022-07-05T14:26:16;1.70;;;0.30;;
44430;SDS011;30135;47.866;-4.222;2022-07-05T14:28:43;5.50;;;0.60;;
44430;SDS011;30135;47.866;-4.222;2022-07-05T14:31:09;3.83;;;0.30;;
44430;SDS011;30135;47.866;-4.222;2022-07-05T14:33:36;0.20;;;0.10;;
44430;SDS011;30135;47.866;-4.222;2022-07-05T14:36:04;3.70;;;0.35;;
44430;SDS011;30135;47.866;-4.222;2022-07-05T14:38:31;4.53;;;0.35;;
44430;SDS011;30135;47.866;-4.222;2022-07-05T14:40:57;2.00;;;0.30;;
44430;SDS011;30135;47.866;-4.222;2022-07-05T14:43:23;0.40;;;0.20;;
44430;SDS011;30135;47.866;-4.222;2022-07-05T14:45:48;1.15;;;0.80;;
44430;SDS011;30135;47.866;-4.222;2022-07-05T14:48:16;3.13;;;0.30;;
44430;SDS011;30135;47.866;-4.222;2022-07-05T14:50:42;4.15;;;0.80;;
44430;SDS011;30135;47.866;-4.222;2022-07-05T14:53:12;1.63;;;0.63;;
44430;SDS011;30135;47.866;-4.222;2022-07-05T14:55:38;3.15;;;0.65;;
44430;SDS011;30135;47.866;-4.222;2022-07-05T14:58:04;2.13;;;0.50;;
44430;SDS011;30135;47.866;-4.222;2022-07-05T15:00:30;2.83;;;0.52;;
44430;SDS011;30135;47.866;-4.222;2022-07-05T15:02:57;2.70;;;0.50;;
44430;SDS011;30135;47.866;-4.222;2022-07-05T15:05:23;3.38;;;1.15;;
44430;SDS011;30135;47.866;-4.222;2022-07-05T15:07:49;4.38;;;0.40;;
44430;SDS011;30135;47.866;-4.222;2022-07-05T15:10:25;5.90;;;1.25;;
44430;SDS011;30135;47.866;-4.222;2022-07-05T15:12:51;4.15;;;0.55;;
44430;SDS011;30135;47.866;-4.222;2022-07-05T15:15:17;3.22;;;0.93;;
44430;SDS011;30135;47.866;-4.222;2022-07-05T15:17:43;2.95;;;0.57;;
44430;SDS011;30135;47.866;-4.222;2022-07-05T15:20:09;1.98;;;0.68;;
44430;SDS011;30135;47.866;-4.222;2022-07-05T15:22:36;0.55;;;0.30;;
44430;SDS011;30135;47.866;-4.222;2022-07-05T15:25:02;3.30;;;0.25;;
44430;SDS011;30135;47.866;-4.222;2022-07-05T15:27:29;1.80;;;0.38;;
44430;SDS011;30135;47.866;-4.222;2022-07-05T15:29:57;0.90;;;0.30;;
44430;SDS011;30135;47.866;-4.222;2022-07-05T15:32:23;8.68;;;1.35;;
44430;SDS011;30135;47.866;-4.222;2022-07-05T15:34:49;1.83;;;0.38;;
44430;SDS011;30135;47.866;-4.222;2022-07-05T15:37:15;0.65;;;0.30;;
44430;SDS011;30135;47.866;-4.222;2022-07-05T15:39:42;5.32;;;0.30;;
44430;SDS011;30135;47.866;-4.222;2022-07-05T15:42:08;3.03;;;0.43;;
44430;SDS011;30135;47.866;-4.222;2022-07-05T15:44:34;3.65;;;0.30;;
44430;SDS011;30135;47.866;-4.222;2022-07-05T15:47:00;0.98;;;0.30;;
44430;SDS011;30135;47.866;-4.222;2022-07-05T15:49:32;1.13;;;0.45;;
44430;SDS011;30135;47.866;-4.222;2022-07-05T15:51:58;4.15;;;0.80;;
44430;SDS011;30135;47.866;-4.222;2022-07-05T15:54:24;7.72;;;0.30;;
44430;SDS011;30135;47.866;-4.222;2022-07-05T15:56:50;3.28;;;1.23;;
44430;SDS011;30135;47.866;-4.222;2022-07-05T15:59:16;2.58;;;0.30;;
44430;SDS011;30135;47.866;-4.222;2022-07-05T16:01:42;0.38;;;0.30;;